Time;durP1;ratioP1;P1;durP2;ratioP2;P2;SDS_P1;SDS_P2;PMS_P1;PMS_P2;Temp;Humidity;BMP_temperature;BMP_pressure;BME280_temperature;BME280_humidity;BME280_pressure;Samples;Min_cycle;Max_cycle;Signal;HPM_P1;HPM_P2
2022/08/06 00:00:04;;;;;;;0.50;0.30;;;;;;;23.94;77.50;95127.16;5070778;28;20857;-61
2022/08/06 00:02:37;;;;;;;0.50;0.40;;;;;;;23.45;83.95;95118.88;5071977;28;20429;-61
2022/08/06 00:05:06;;;;;;;0.50;0.50;;;;;;;22.92;87.89;95136.56;5071843;28;20459;-61
2022/08/06 00:07:35;;;;;;;0.50;0.30;;;;;;;22.42;88.82;95052.78;5071591;28;20429;-62
2022/08/06 00:10:17;;;;;;;0.40;0.30;;;;;;;22.95;86.08;95054.78;5071471;28;20425;-61
2022/08/06 00:12:46;;;;;;;0.50;0.37;;;;;;;23.61;83.58;95124.97;5071602;28;20425;-61
2022/08/06 00:15:18;;;;;;;4.37;0.40;;;;;;;23.77;83.31;95120.28;5071481;28;20971;-61
2022/08/06 00:18:07;;;;;;;0.90;0.50;;;;;;;23.37;82.95;95065.75;5071265;28;20477;-62
2022/08/06 00:20:39;;;;;;;0.40;0.20;;;;;;;23.69;83.59;95115.88;5071546;28;20457;-62
2022/08/06 00:23:10;;;;;;;0.50;0.40;;;;;;;23.74;81.05;95121.00;5071487;28;20422;-62
2022/08/06 00:25:45;;;;;;;0.60;0.50;;;;;;;23.78;79.34;95113.72;5071794;28;20523;-62
2022/08/06 00:28:21;;;;;;;0.50;0.30;;;;;;;23.61;81.82;95118.78;5071404;28;20483;-62
2022/08/06 00:31:02;;;;;;;0.50;0.30;;;;;;;23.61;77.67;95113.38;5071732;28;20429;-62
2022/08/06 00:33:38;;;;;;;0.43;0.27;;;;;;;23.50;79.50;95115.09;5075039;28;20437;-62
2022/08/06 00:36:18;;;;;;;0.50;0.40;;;;;;;23.63;78.53;95116.53;5075084;28;20467;-62
2022/08/06 00:38:55;;;;;;;0.40;0.20;;;;;;;23.64;79.03;95118.84;5075236;28;20469;-62
2022/08/06 00:41:24;;;;;;;0.50;0.30;;;;;;;23.69;79.82;95117.78;5074870;28;20433;-62
2022/08/06 00:43:58;;;;;;;0.40;0.30;;;;;;;22.53;82.72;94956.59;5075007;28;20808;-62
2022/08/06 00:46:30;;;;;;;0.40;0.30;;;;;;;23.66;80.81;95115.78;5074855;28;20423;-62
2022/08/06 00:48:59;;;;;;;0.40;0.30;;;;;;;23.14;85.03;95064.84;5075033;28;20425;-62
2022/08/06 00:51:39;;;;;;;0.40;0.30;;;;;;;23.24;83.71;95077.81;5074815;28;20421;-60
2022/08/06 00:54:19;;;;;;;0.50;0.40;;;;;;;23.48;85.86;95123.53;5074916;28;20817;-61
2022/08/06 00:57:02;;;;;;;0.50;0.30;;;;;;;23.25;87.90;95123.41;5074776;28;20519;-61
2022/08/06 00:59:34;;;;;;;0.43;0.30;;;;;;;22.74;90.61;95125.34;5075163;28;20417;-61
2022/08/06 01:02:04;;;;;;;0.60;0.60;;;;;;;22.81;90.33;95130.16;5075039;28;20485;-60
2022/08/06 01:04:37;;;;;;;0.40;0.30;;;;;;;23.13;87.44;95130.88;5074961;28;20483;-60
2022/08/06 01:07:05;;;;;;;0.50;0.30;;;;;;;22.59;86.34;95036.97;5074649;28;20410;-61
2022/08/06 01:09:37;;;;;;;0.50;0.30;;;;;;;23.25;85.38;95128.06;5074575;28;20957;-61
2022/08/06 01:12:26;;;;;;;0.50;0.33;;;;;;;23.28;88.46;95130.03;5074867;28;20436;-62
2022/08/06 01:15:04;;;;;;;0.40;0.30;;;;;;;23.07;88.79;95137.72;5074825;28;20471;-61
2022/08/06 01:17:55;;;;;;;0.50;0.40;;;;;;;23.13;88.29;95136.28;5074096;28;20518;-60
2022/08/06 01:20:42;;;;;;;0.40;0.30;;;;;;;23.16;90.12;95132.88;5074624;28;20422;-60
2022/08/06 01:23:49;;;;;;;0.40;0.30;;;;;;;23.15;88.03;95134.78;5073771;28;20520;-60
2022/08/06 01:26:38;;;;;;;0.40;0.30;;;;;;;22.77;92.83;95133.91;5074568;28;20524;-61
2022/08/06 01:29:12;;;;;;;0.50;0.30;;;;;;;22.89;91.58;95120.28;5074340;28;20917;-61
2022/08/06 01:31:47;;;;;;;5.60;0.80;;;;;;;22.54;91.90;95112.13;5074035;28;21002;-62
2022/08/06 01:34:24;;;;;;;0.67;0.67;;;;;;;22.48;93.19;95133.19;5074205;28;20854;-62
2022/08/06 01:37:04;;;;;;;0.50;0.30;;;;;;;22.72;91.86;95129.53;5074061;28;20602;-62
2022/08/06 01:39:35;;;;;;;0.50;0.40;;;;;;;22.89;91.86;95134.59;5074107;28;20432;-61
2022/08/06 01:42:24;;;;;;;1.03;0.60;;;;;;;22.98;89.36;95123.59;5073979;28;20443;-61
2022/08/06 01:45:07;;;;;;;0.40;0.30;;;;;;;22.97;90.26;95122.03;5073138;28;20457;-62
2022/08/06 01:47:39;;;;;;;0.57;0.40;;;;;;;22.97;89.33;95117.38;5073447;28;20436;-61
2022/08/06 01:50:26;;;;;;;0.60;0.53;;;;;;;22.98;88.56;95118.19;5073866;28;20421;-62
2022/08/06 01:52:58;;;;;;;0.40;0.30;;;;;;;21.98;93.68;95011.63;5073736;28;20945;-61
2022/08/06 01:55:30;;;;;;;0.40;0.30;;;;;;;22.79;91.27;95115.44;5074179;28;20532;-62
2022/08/06 01:58:25;;;;;;;0.40;0.30;;;;;;;22.81;90.67;95113.94;5073382;28;20488;-62
2022/08/06 02:01:01;;;;;;;0.43;0.27;;;;;;;22.85;89.92;95114.00;5073614;28;20429;-62
2022/08/06 02:03:36;;;;;;;0.60;0.47;;;;;;;22.52;93.75;95112.44;5073679;28;20429;-61
2022/08/06 02:06:21;;;;;;;0.40;0.20;;;;;;;22.75;90.98;95120.75;5073896;28;20422;-62
2022/08/06 02:08:57;;;;;;;0.50;0.40;;;;;;;22.30;92.18;95045.56;5072226;28;20929;-61
2022/08/06 02:11:47;;;;;;;0.40;0.30;;;;;;;22.80;91.48;95112.38;5073804;28;20772;-62
2022/08/06 02:14:38;;;;;;;0.50;0.30;;;;;;;22.67;94.54;95119.78;5073398;28;20417;-61
2022/08/06 02:17:13;;;;;;;0.60;0.30;;;;;;;22.57;94.73;95120.28;5072426;28;20591;-61
2022/08/06 02:19:47;;;;;;;1.00;0.50;;;;;;;22.04;98.36;95120.88;5073603;28;20456;-61
2022/08/06 02:22:39;;;;;;;0.50;0.30;;;;;;;22.42;95.91;95133.78;5073210;28;20425;-61
2022/08/06 02:25:13;;;;;;;0.40;0.20;;;;;;;22.58;92.51;95119.16;5073203;28;20482;-62
2022/08/06 02:28:00;;;;;;;0.40;0.20;;;;;;;22.69;90.57;95117.50;5073012;28;21090;-61
2022/08/06 02:30:33;;;;;;;0.50;0.40;;;;;;;22.23;97.49;95131.78;5073020;28;20946;-60
2022/08/06 02:33:12;;;;;;;0.50;0.30;;;;;;;21.94;96.97;95076.28;5073231;28;20471;-60
2022/08/06 02:35:49;;;;;;;0.63;0.30;;;;;;;22.40;97.25;95122.56;5072690;28;20435;-61
2022/08/06 02:38:26;;;;;;;0.50;0.40;;;;;;;22.17;95.64;95062.19;5072647;28;20473;-61
2022/08/06 02:41:00;;;;;;;0.50;0.30;;;;;;;22.58;95.29;95115.69;5072656;28;20512;-61
2022/08/06 02:43:34;;;;;;;0.40;0.20;;;;;;;22.43;96.21;95121.88;5073036;28;20451;-61
2022/08/06 02:46:11;;;;;;;0.40;0.20;;;;;;;22.02;97.87;95110.44;5073124;28;20496;-61
2022/08/06 02:48:46;;;;;;;1.07;0.40;;;;;;;22.21;97.35;95122.47;5072995;28;20760;-61
2022/08/06 02:51:21;;;;;;;0.40;0.30;;;;;;;22.28;96.33;95123.44;5072903;28;20432;-60
2022/08/06 02:54:15;;;;;;;0.40;0.30;;;;;;;22.30;97.84;95121.16;5072350;28;20443;-60
2022/08/06 02:56:48;;;;;;;0.40;0.27;;;;;;;22.11;98.76;95088.69;5072435;28;20516;-62
2022/08/06 02:59:21;;;;;;;0.40;0.30;;;;;;;22.23;99.20;95120.22;5072227;28;20522;-61
2022/08/06 03:01:53;;;;;;;0.67;0.37;;;;;;;21.87;100.00;95129.28;5072050;28;20433;-61
2022/08/06 03:04:26;;;;;;;0.73;0.60;;;;;;;21.19;100.00;95126.59;5072335;28;20479;-61
2022/08/06 03:07:05;;;;;;;0.90;0.90;;;;;;;20.99;100.00;95127.50;5072294;28;20429;-61
2022/08/06 03:09:54;;;;;;;1.00;1.00;;;;;;;21.22;100.00;95125.91;5071939;28;20436;-61
2022/08/06 03:12:25;;;;;;;1.77;0.77;;;;;;;20.96;100.00;95127.38;5071843;28;20429;-60
2022/08/06 03:15:01;;;;;;;0.50;0.40;;;;;;;21.15;100.00;95128.38;5072576;28;20475;-60
2022/08/06 03:17:38;;;;;;;0.40;0.27;;;;;;;21.56;100.00;95134.56;5071786;28;20491;-60
2022/08/06 03:20:10;;;;;;;1.03;0.77;;;;;;;21.22;100.00;95136.69;5072212;28;20422;-60
2022/08/06 03:22:47;;;;;;;0.40;0.30;;;;;;;21.58;100.00;95132.31;5072324;28;20429;-60
2022/08/06 03:25:16;;;;;;;0.50;0.50;;;;;;;21.66;100.00;95125.97;5071979;28;20483;-61
2022/08/06 03:27:49;;;;;;;0.47;0.30;;;;;;;21.72;100.00;95135.41;5072239;28;20819;-61
2022/08/06 03:30:20;;;;;;;0.40;0.30;;;;;;;21.84;100.00;95135.34;5071588;28;20844;-61
2022/08/06 03:33:03;;;;;;;0.40;0.30;;;;;;;21.77;100.00;95135.94;5071571;28;20436;-61
2022/08/06 03:35:36;;;;;;;0.50;0.40;;;;;;;21.87;100.00;95134.69;5071278;28;20796;-61
2022/08/06 03:38:17;;;;;;;0.50;0.40;;;;;;;21.98;100.00;95135.78;5071550;28;20508;-61
2022/08/06 03:40:48;;;;;;;0.50;0.30;;;;;;;21.87;100.00;95135.47;5071563;28;20486;-61
2022/08/06 03:43:17;;;;;;;0.40;0.30;;;;;;;21.95;100.00;95141.84;5071504;28;20438;-61
2022/08/06 03:46:01;;;;;;;0.40;0.30;;;;;;;22.03;100.00;95147.09;5071158;28;20490;-62
2022/08/06 03:48:34;;;;;;;0.40;0.30;;;;;;;22.19;100.00;95135.53;5071817;28;20522;-61
2022/08/06 03:51:12;;;;;;;0.70;0.50;;;;;;;22.12;100.00;95136.91;5071586;28;20421;-62
2022/08/06 03:53:43;;;;;;;0.40;0.30;;;;;;;22.11;100.00;95135.34;5071358;28;20437;-61
2022/08/06 03:56:21;;;;;;;0.60;0.60;;;;;;;21.42;100.00;95134.94;5071299;28;20512;-62
2022/08/06 03:59:02;;;;;;;1.00;1.00;;;;;;;21.45;100.00;95123.50;5071542;28;20512;-62
2022/08/06 04:01:36;;;;;;;0.90;0.30;;;;;;;21.86;100.00;95135.81;5071748;28;20432;-62
2022/08/06 04:04:18;;;;;;;0.40;0.30;;;;;;;22.12;100.00;95138.81;5071755;28;20538;-59
2022/08/06 04:06:59;;;;;;;1.13;0.50;;;;;;;22.40;100.00;95126.06;5072104;28;20428;-59
2022/08/06 04:09:32;;;;;;;1.67;0.47;;;;;;;22.35;100.00;95137.13;5075560;28;20478;-59
2022/08/06 04:12:21;;;;;;;0.40;0.23;;;;;;;22.56;100.00;95136.84;5075304;28;20441;-55
2022/08/06 04:15:12;;;;;;;0.40;0.30;;;;;;;22.77;100.00;95131.97;5074881;28;20432;-60
2022/08/06 04:17:45;;;;;;;0.40;0.30;;;;;;;22.80;98.24;95142.09;5075323;28;20508;-59
2022/08/06 04:20:19;;;;;;;0.50;0.40;;;;;;;22.82;97.43;95144.47;5075574;28;20870;-60
2022/08/06 04:23:09;;;;;;;1.17;0.40;;;;;;;22.09;100.00;95139.50;5075062;28;20966;-60
2022/08/06 04:25:41;;;;;;;0.60;0.40;;;;;;;22.00;100.00;95152.41;5075482;28;20431;-60
2022/08/06 04:28:11;;;;;;;0.60;0.60;;;;;;;21.39;100.00;95047.44;5075430;28;20508;-60
2022/08/06 04:30:41;;;;;;;0.90;0.90;;;;;;;22.02;100.00;95139.34;5075448;28;20409;-59
2022/08/06 04:33:18;;;;;;;0.87;0.87;;;;;;;21.65;100.00;95149.47;5074973;28;20429;-59
2022/08/06 04:35:48;;;;;;;0.97;0.90;;;;;;;21.53;100.00;95157.59;5075270;28;20856;-59
2022/08/06 04:38:38;;;;;;;0.70;0.40;;;;;;;22.14;100.00;95160.84;5074136;28;20472;-59
2022/08/06 04:41:08;;;;;;;0.73;0.73;;;;;;;21.84;100.00;95155.00;5074684;28;20501;-58
2022/08/06 04:43:43;;;;;;;1.17;0.50;;;;;;;22.30;100.00;95158.97;5075145;28;20429;-58
2022/08/06 04:46:23;;;;;;;1.50;0.33;;;;;;;22.10;100.00;95165.38;5075114;28;20436;-58
2022/08/06 04:48:54;;;;;;;0.50;0.30;;;;;;;22.20;100.00;95169.50;5074698;28;20964;-58
2022/08/06 04:51:29;;;;;;;0.40;0.30;;;;;;;22.72;100.00;95173.56;5074773;28;20557;-58
2022/08/06 04:54:19;;;;;;;3.77;0.33;;;;;;;23.04;100.00;95165.44;5074096;28;20456;-59
2022/08/06 04:56:57;;;;;;;0.40;0.30;;;;;;;22.82;100.00;95123.59;5074675;28;20447;-58
2022/08/06 04:59:26;;;;;;;0.50;0.30;;;;;;;23.27;100.00;95160.94;5074426;28;20495;-57
2022/08/06 05:02:14;;;;;;;6.70;0.50;;;;;;;23.18;100.00;95154.94;5074184;28;20448;-57
2022/08/06 05:04:45;;;;;;;0.50;0.50;;;;;;;22.65;100.00;95165.28;5074052;28;20433;-57
2022/08/06 05:07:19;;;;;;;0.57;0.30;;;;;;;23.09;100.00;95165.16;5073815;28;20429;-57
2022/08/06 05:09:51;;;;;;;0.50;0.40;;;;;;;23.13;100.00;95184.94;5074011;28;20424;-57
2022/08/06 05:12:26;;;;;;;8.00;0.80;;;;;;;23.24;100.00;95145.41;5073377;28;20437;-57
2022/08/06 05:15:00;;;;;;;4.00;0.50;;;;;;;22.98;100.00;95166.81;5074250;28;20414;-56
2022/08/06 05:17:36;;;;;;;0.50;0.30;;;;;;;23.24;100.00;95150.81;5073479;28;20564;-57
2022/08/06 05:20:15;;;;;;;1.67;1.00;;;;;;;23.73;100.00;95162.72;5073872;28;20472;-57
2022/08/06 05:23:03;;;;;;;0.63;0.60;;;;;;;23.30;100.00;95162.94;5074096;28;20809;-58
2022/08/06 05:25:48;;;;;;;1.27;1.00;;;;;;;22.08;100.00;95014.59;5073911;28;20432;-58
2022/08/06 05:28:23;;;;;;;1.10;1.03;;;;;;;22.99;100.00;95163.00;5073864;28;20428;-59
2022/08/06 05:30:55;;;;;;;0.50;0.40;;;;;;;22.73;100.00;95150.81;5073373;28;20869;-59
2022/08/06 05:33:27;;;;;;;0.70;0.70;;;;;;;23.16;100.00;95152.59;5074002;28;20421;-59
2022/08/06 05:35:58;;;;;;;0.80;0.30;;;;;;;23.68;100.00;95154.13;5073996;28;20524;-58
2022/08/06 05:38:33;;;;;;;0.63;0.63;;;;;;;24.17;100.00;95157.81;5073944;28;20508;-58
2022/08/06 05:41:06;;;;;;;0.60;0.50;;;;;;;24.45;100.00;95149.41;5073712;28;20438;-58
2022/08/06 05:43:36;;;;;;;0.50;0.50;;;;;;;24.37;95.99;95153.13;5073643;28;20496;-59
2022/08/06 05:46:25;;;;;;;0.53;0.40;;;;;;;24.34;97.13;95145.72;5072769;28;20445;-59
2022/08/06 05:49:02;;;;;;;0.40;0.33;;;;;;;24.34;94.91;95146.50;5073780;28;20511;-59
2022/08/06 05:51:56;;;;;;;1.10;1.10;;;;;;;24.18;100.00;95124.16;5073404;28;20515;-59
2022/08/06 05:54:33;;;;;;;1.87;1.77;;;;;;;24.29;99.36;95137.88;5073438;28;20487;-59
2022/08/06 05:57:12;;;;;;;1.50;1.40;;;;;;;23.85;100.00;95142.84;5073593;28;20782;-59
2022/08/06 05:59:51;;;;;;;1.17;1.07;;;;;;;23.87;100.00;95099.97;5073113;28;20483;-58
2022/08/06 06:02:29;;;;;;;0.93;0.87;;;;;;;24.24;100.00;95140.88;5073173;28;20425;-59
2022/08/06 06:05:00;;;;;;;1.33;1.33;;;;;;;24.09;94.16;95142.56;5073488;28;20426;-58
2022/08/06 06:07:49;;;;;;;0.60;0.60;;;;;;;24.42;91.88;95142.00;5072951;28;20447;-60
2022/08/06 06:10:40;;;;;;;1.47;1.03;;;;;;;24.79;88.80;95134.13;5073044;28;20832;-60
2022/08/06 06:13:23;;;;;;;1.57;1.47;;;;;;;24.99;88.75;95135.59;5073359;28;20425;-59
2022/08/06 06:16:22;;;;;;;4.43;1.00;;;;;;;25.08;91.06;95120.63;5072857;28;21119;-59
2022/08/06 06:19:11;;;;;;;1.47;1.37;;;;;;;25.52;89.60;95122.78;5072757;28;20468;-59
2022/08/06 06:21:56;;;;;;;0.47;0.47;;;;;;;26.37;82.01;95111.75;5073104;28;20437;-58
2022/08/06 06:24:32;;;;;;;1.17;1.17;;;;;;;26.77;76.29;95107.44;5072868;28;20426;-58
2022/08/06 06:27:06;;;;;;;0.80;0.80;;;;;;;26.28;77.30;95119.44;5072773;28;20472;-57
2022/08/06 06:30:02;;;;;;;1.07;0.93;;;;;;;27.18;72.37;95108.09;5071874;28;20422;-56
2022/08/06 06:32:43;;;;;;;0.50;0.47;;;;;;;26.98;71.14;95107.59;5072810;28;20893;-56
2022/08/06 06:35:24;;;;;;;1.13;1.13;;;;;;;26.41;69.04;95044.59;5072379;28;20479;-56
2022/08/06 06:38:15;;;;;;;1.33;1.20;;;;;;;26.91;70.47;95102.09;5072252;28;20422;-56
2022/08/06 06:40:52;;;;;;;1.77;1.67;;;;;;;27.32;70.31;95111.72;5072648;28;20477;-56
2022/08/06 06:43:41;;;;;;;0.97;0.97;;;;;;;27.47;68.84;95110.66;5072319;28;20467;-58
2022/08/06 06:46:20;;;;;;;2.70;1.20;;;;;;;27.58;70.36;95097.06;5072368;28;20429;-56
2022/08/06 06:49:13;;;;;;;0.60;0.47;;;;;;;28.14;63.47;95096.50;5072044;28;20433;-56
2022/08/06 06:52:08;;;;;;;0.50;0.40;;;;;;;27.69;62.54;95067.94;5072115;28;20445;-56
2022/08/06 06:54:48;;;;;;;1.63;0.73;;;;;;;28.41;65.16;95080.59;5072120;28;20425;-56
2022/08/06 06:57:35;;;;;;;2.30;0.73;;;;;;;28.62;61.34;95084.13;5072475;28;20429;-57
2022/08/06 07:00:13;;;;;;;0.83;0.77;;;;;;;29.25;58.27;95074.31;5072046;28;20484;-56
2022/08/06 07:03:05;;;;;;;0.80;0.80;;;;;;;29.45;56.52;95068.00;5072094;28;20789;-57
2022/08/06 07:05:39;;;;;;;12.47;1.10;;;;;;;28.64;56.11;95062.69;5071791;28;20433;-57
2022/08/06 07:08:30;;;;;;;1.70;1.47;;;;;;;29.01;54.93;95061.47;5071747;28;20448;-57
2022/08/06 07:11:10;;;;;;;0.67;0.60;;;;;;;29.08;53.85;95058.72;5072215;28;20461;-57
2022/08/06 07:13:49;;;;;;;0.50;0.40;;;;;;;29.67;53.29;95052.31;5071953;28;20504;-57
2022/08/06 07:16:21;;;;;;;0.73;0.73;;;;;;;29.71;52.66;95058.53;5071451;28;20437;-56
2022/08/06 07:19:08;;;;;;;0.70;0.70;;;;;;;29.66;51.29;95056.22;5071609;28;20568;-56
2022/08/06 07:21:40;;;;;;;0.83;0.83;;;;;;;29.26;52.97;95051.31;5071970;28;20977;-56
2022/08/06 07:24:12;;;;;;;0.80;0.67;;;;;;;29.55;49.98;95047.28;5072066;28;20414;-56
2022/08/06 07:27:02;;;;;;;0.50;0.50;;;;;;;29.98;51.04;95048.66;5071709;28;20958;-56
2022/08/06 07:29:32;;;;;;;0.87;0.87;;;;;;;30.01;51.35;95039.66;5072060;28;20504;-57
2022/08/06 07:32:21;;;;;;;1.60;0.90;;;;;;;31.12;55.47;95041.13;5071797;28;20450;-57
2022/08/06 07:35:01;;;;;;;0.80;0.60;;;;;;;31.41;48.37;95036.91;5072103;28;20502;-57
2022/08/06 07:37:43;;;;;;;0.50;0.47;;;;;;;30.74;49.74;95034.84;5071707;28;20937;-57
2022/08/06 07:40:19;;;;;;;1.23;0.97;;;;;;;30.79;49.94;95028.91;5071965;28;20471;-57
2022/08/06 07:42:51;;;;;;;0.50;0.50;;;;;;;30.79;51.73;95042.59;5072010;28;20427;-57
2022/08/06 07:45:23;;;;;;;0.77;0.77;;;;;;;31.39;48.81;95036.56;5071922;28;20420;-57
2022/08/06 07:48:04;;;;;;;0.40;0.30;;;;;;;32.36;44.50;95029.38;5071813;28;20867;-57
2022/08/06 07:50:41;;;;;;;0.73;0.60;;;;;;;31.88;47.30;95029.66;5072014;28;20442;-57
2022/08/06 07:53:12;;;;;;;1.03;1.03;;;;;;;32.10;44.88;95024.72;5071794;28;20467;-57
2022/08/06 07:55:40;;;;;;;0.80;0.80;;;;;;;31.99;45.97;95021.34;5071607;28;20428;-57
2022/08/06 07:58:09;;;;;;;0.97;0.93;;;;;;;31.77;47.52;95025.53;5072108;28;20429;-57
2022/08/06 08:00:41;;;;;;;0.40;0.30;;;;;;;32.64;42.91;95020.72;5071477;28;20464;-57
2022/08/06 08:06:26;;;;;;;0.60;0.40;;;;;;;32.36;41.46;95009.44;5071631;28;20436;-57
2022/08/06 08:08:59;;;;;;;0.40;0.37;;;;;;;31.95;42.68;95001.41;5072017;28;20520;-57
2022/08/06 08:11:28;;;;;;;0.57;0.40;;;;;;;31.30;44.56;94984.22;5071607;28;20498;-57
2022/08/06 08:14:19;;;;;;;0.60;0.60;;;;;;;31.53;44.13;94999.22;5070716;28;20446;-57
2022/08/06 08:16:49;;;;;;;0.63;0.63;;;;;;;31.89;45.39;95001.09;5071771;28;20919;-57
2022/08/06 08:19:30;;;;;;;0.63;0.63;;;;;;;33.00;41.64;94990.69;5071794;28;20596;-57
2022/08/06 08:22:06;;;;;;;0.40;0.30;;;;;;;33.79;40.14;94922.75;5071357;28;20564;-57
2022/08/06 08:24:36;;;;;;;0.50;0.40;;;;;;;34.55;36.90;94997.63;5071569;28;20466;-56
2022/08/06 08:27:08;;;;;;;6.63;1.03;;;;;;;34.63;42.91;94995.47;5071786;28;20475;-56
2022/08/06 08:29:50;;;;;;;0.47;0.47;;;;;;;35.16;39.58;94991.34;5071223;28;20522;-56
2022/08/06 08:32:26;;;;;;;0.60;0.60;;;;;;;35.31;38.04;94996.03;5071684;28;20428;-57
2022/08/06 08:34:56;;;;;;;0.60;0.60;;;;;;;35.89;36.00;94988.47;5070437;28;20450;-56
2022/08/06 08:37:26;;;;;;;0.40;0.40;;;;;;;35.93;35.62;94989.09;5071276;28;20703;-56
2022/08/06 08:40:00;;;;;;;0.50;0.40;;;;;;;36.32;33.89;94979.66;5071135;28;20494;-57
2022/08/06 08:42:35;;;;;;;0.50;0.40;;;;;;;37.04;32.64;94979.63;5071342;28;20444;-57
2022/08/06 08:45:06;;;;;;;1.67;0.90;;;;;;;36.61;30.71;94982.28;5071208;28;20428;-57
2022/08/06 08:47:45;;;;;;;0.53;0.47;;;;;;;36.01;31.35;94986.94;5071660;28;20186;-57
2022/08/06 08:50:28;;;;;;;0.60;0.60;;;;;;;34.79;35.44;94981.66;5071158;28;20739;-57
2022/08/06 08:53:04;;;;;;;0.60;0.60;;;;;;;35.90;33.32;94978.19;5071935;28;20468;-56
2022/08/06 08:55:33;;;;;;;0.60;0.60;;;;;;;36.07;36.34;94965.88;5074931;28;20460;-57
2022/08/06 08:58:22;;;;;;;0.73;0.73;;;;;;;36.14;29.06;94966.41;5074669;28;20432;-57
2022/08/06 09:01:09;;;;;;;0.70;0.70;;;;;;;36.14;30.05;94968.41;5074653;28;20257;-57
2022/08/06 09:03:59;;;;;;;0.50;0.50;;;;;;;36.26;30.89;94965.63;5074604;28;20194;-57
2022/08/06 09:06:29;;;;;;;0.97;0.60;;;;;;;35.59;31.43;94953.13;5075105;28;20214;-57
2022/08/06 09:09:07;;;;;;;0.30;0.30;;;;;;;35.17;31.02;94965.34;5074559;28;20193;-57
2022/08/06 09:11:43;;;;;;;0.40;0.30;;;;;;;34.87;33.77;94975.53;5074665;28;20209;-57
2022/08/06 09:14:32;;;;;;;0.43;0.37;;;;;;;34.26;35.56;94980.22;5074509;28;20721;-57
2022/08/06 09:17:02;;;;;;;0.40;0.40;;;;;;;33.88;37.30;94970.88;5074266;28;20956;-56
2022/08/06 09:19:32;;;;;;;0.30;0.30;;;;;;;34.14;36.06;94973.41;5074504;28;20512;-57
2022/08/06 09:22:06;;;;;;;0.40;0.40;;;;;;;34.31;31.91;94957.69;5074275;28;20483;-58
2022/08/06 09:24:38;;;;;;;0.40;0.30;;;;;;;33.99;34.48;94949.41;5074453;28;20516;-56
2022/08/06 09:27:09;;;;;;;0.50;0.30;;;;;;;34.13;32.23;94952.59;5074596;28;20460;-57
2022/08/06 09:29:59;;;;;;;0.97;0.37;;;;;;;33.96;32.10;94945.53;5074170;28;20444;-56
2022/08/06 09:32:48;;;;;;;0.40;0.30;;;;;;;33.51;33.20;94961.81;5073926;28;20430;-58
2022/08/06 09:35:26;;;;;;;0.40;0.30;;;;;;;33.54;34.31;94960.97;5074167;28;20439;-56
2022/08/06 09:38:14;;;;;;;0.30;0.20;;;;;;;33.09;33.76;94916.75;5074168;28;20535;-58
2022/08/06 09:41:08;;;;;;;0.50;0.30;;;;;;;33.35;32.66;94953.53;5074011;28;20434;-52
2022/08/06 09:43:44;;;;;;;0.40;0.40;;;;;;;33.13;34.40;94953.19;5073960;28;20937;-52
2022/08/06 09:46:40;;;;;;;0.40;0.40;;;;;;;33.35;32.92;94953.53;5073289;28;20426;-53
2022/08/06 09:49:13;;;;;;;0.40;0.30;;;;;;;32.84;32.39;94948.66;5073742;28;20433;-53
2022/08/06 09:52:15;;;;;;;0.40;0.40;;;;;;;32.55;33.15;94957.38;5073788;28;20437;-53
2022/08/06 09:54:46;;;;;;;0.50;0.40;;;;;;;32.55;33.63;94945.63;5073396;28;20447;-55
2022/08/06 09:57:24;;;;;;;0.40;0.37;;;;;;;32.71;32.49;94944.97;5073729;28;20529;-55
2022/08/06 10:00:04;;;;;;;0.40;0.30;;;;;;;32.50;33.59;94952.34;5072858;28;20432;-55
2022/08/06 10:02:42;;;;;;;0.50;0.40;;;;;;;33.20;34.23;94947.53;5073603;28;20503;-55
2022/08/06 10:05:19;;;;;;;0.40;0.30;;;;;;;34.04;33.23;94952.41;5072829;28;20437;-53
2022/08/06 10:08:04;;;;;;;0.40;0.37;;;;;;;33.97;34.15;94946.31;5073617;28;20430;-52
2022/08/06 10:10:44;;;;;;;1.30;1.10;;;;;;;33.41;32.18;94926.31;5072689;28;20885;-53
2022/08/06 10:13:23;;;;;;;0.40;0.40;;;;;;;33.33;32.02;94942.19;5073775;28;20509;-53
2022/08/06 10:15:54;;;;;;;0.40;0.30;;;;;;;33.20;33.42;94944.78;5073586;28;20454;-52
2022/08/06 10:18:39;;;;;;;0.40;0.40;;;;;;;33.04;33.99;94947.47;5073120;28;20527;-52
2022/08/06 10:21:29;;;;;;;0.43;0.43;;;;;;;33.19;35.46;94939.75;5073106;28;20562;-53
2022/08/06 10:24:10;;;;;;;0.40;0.30;;;;;;;32.83;35.04;94936.09;5073223;28;20434;-54
2022/08/06 10:26:40;;;;;;;0.40;0.40;;;;;;;32.39;34.87;94934.50;5073224;28;20455;-55
2022/08/06 10:29:15;;;;;;;2.93;0.87;;;;;;;32.10;35.68;94934.22;5073059;28;20440;-54
2022/08/06 10:31:47;;;;;;;0.40;0.30;;;;;;;32.12;36.81;94928.31;5073178;28;20444;-55
2022/08/06 10:34:27;;;;;;;0.43;0.33;;;;;;;32.15;35.33;94936.50;5073068;28;20436;-55
2022/08/06 10:37:07;;;;;;;0.40;0.30;;;;;;;31.52;35.75;94845.06;5073268;28;20421;-55
2022/08/06 10:39:57;;;;;;;0.40;0.40;;;;;;;31.87;36.51;94928.69;5072868;28;20553;-54
2022/08/06 10:42:38;;;;;;;0.40;0.40;;;;;;;31.60;36.56;94914.97;5072844;28;21051;-53
2022/08/06 10:45:11;;;;;;;0.40;0.40;;;;;;;32.10;35.66;94927.94;5072608;28;20929;-55
2022/08/06 10:47:48;;;;;;;0.93;0.30;;;;;;;32.39;37.39;94923.53;5072941;28;20955;-54
2022/08/06 10:50:38;;;;;;;1.03;1.03;;;;;;;32.85;37.22;94919.97;5072525;28;20456;-54
2022/08/06 10:53:23;;;;;;;6.53;0.57;;;;;;;32.87;38.46;94925.81;5072452;28;20449;-53
2022/08/06 10:56:14;;;;;;;0.40;0.40;;;;;;;34.68;35.24;94912.34;5072304;28;20454;-51
2022/08/06 10:58:49;;;;;;;0.57;0.50;;;;;;;36.18;31.31;94916.63;5072631;28;20427;-51
2022/08/06 11:01:27;;;;;;;0.50;0.50;;;;;;;36.02;29.19;94912.03;5072516;28;20427;-51
2022/08/06 11:04:22;;;;;;;0.40;0.40;;;;;;;36.26;30.13;94906.88;5072176;28;20447;-52
2022/08/06 11:07:24;;;;;;;0.40;0.40;;;;;;;35.33;31.41;94902.66;5072269;28;20531;-52
2022/08/06 11:10:36;;;;;;;0.73;0.73;;;;;;;35.91;31.21;94900.50;5063371;28;20448;-51
2022/08/06 11:13:16;;;;;;;0.60;0.60;;;;;;;36.69;29.13;94906.25;5072015;28;20854;-52
2022/08/06 11:15:45;;;;;;;0.40;0.33;;;;;;;37.41;25.97;94895.00;5071724;28;20465;-51
2022/08/06 11:18:18;;;;;;;0.40;0.40;;;;;;;38.29;26.79;94888.75;5071609;28;20482;-51
2022/08/06 11:20:59;;;;;;;0.40;0.40;;;;;;;38.64;26.56;94901.13;5071399;28;20944;-51
2022/08/06 11:23:31;;;;;;;0.60;0.40;;;;;;;38.44;24.19;94898.03;5071854;28;20242;-52
2022/08/06 11:26:35;;;;;;;0.47;0.47;;;;;;;39.43;23.98;94893.72;5071614;28;20571;-52
2022/08/06 11:29:12;;;;;;;0.57;0.57;;;;;;;38.78;23.64;94887.91;5071625;28;20643;-60
2022/08/06 11:31:46;;;;;;;2.95;0.40;;;;;;;39.36;24.05;94888.50;5071500;28;20193;-62
2022/08/06 11:34:44;;;;;;;0.77;0.60;;;;;;;39.27;23.55;94886.50;5071683;28;20631;-63
2022/08/06 11:37:43;;;;;;;0.40;0.30;;;;;;;40.12;22.56;94876.22;5071377;28;20696;-62
2022/08/06 11:40:57;;;;;;;0.77;0.77;;;;;;;39.50;22.01;94875.97;5071469;28;20191;-64
2022/08/06 11:43:47;;;;;;;0.40;0.40;;;;;;;40.86;22.16;94859.34;5071818;28;20215;-66
2022/08/06 11:46:32;;;;;;;0.65;0.63;;;;;;;40.30;21.56;94856.69;5071843;28;20199;-63
2022/08/06 11:49:34;;;;;;;0.50;0.50;;;;;;;40.31;21.92;94853.41;5071610;28;20699;-65
2022/08/06 11:52:40;;;;;;;0.30;0.30;;;;;;;40.68;21.61;94851.19;5070991;28;20557;-65
2022/08/06 11:55:10;;;;;;;0.60;0.60;;;;;;;40.98;20.87;94852.78;5071777;28;20199;-64
2022/08/06 11:57:49;;;;;;;0.40;0.40;;;;;;;40.75;21.10;94852.81;5071848;28;20196;-65
2022/08/06 12:00:21;;;;;;;0.40;0.30;;;;;;;40.02;21.61;94858.06;5071461;28;20238;-64
2022/08/06 12:02:57;;;;;;;0.30;0.30;;;;;;;38.39;23.72;94857.09;5071682;28;20266;-64
2022/08/06 12:05:42;;;;;;;0.47;0.47;;;;;;;36.97;24.25;94854.75;5071427;28;20282;-63
2022/08/06 12:08:29;;;;;;;0.30;0.20;;;;;;;37.00;25.42;94849.13;5071537;28;20209;-63
2022/08/06 12:11:27;;;;;;;0.30;0.30;;;;;;;36.97;24.26;94847.25;5071315;28;20190;-63
2022/08/06 12:13:55;;;;;;;0.50;0.50;;;;;;;35.69;26.87;94850.00;5071453;28;20717;-64
2022/08/06 12:16:44;;;;;;;0.40;0.40;;;;;;;35.32;26.52;94853.50;5071330;28;20229;-64
2022/08/06 12:19:22;;;;;;;0.40;0.30;;;;;;;35.26;28.49;94858.00;5071540;28;20583;-63
2022/08/06 12:21:55;;;;;;;0.53;0.40;;;;;;;35.52;28.13;94852.09;5071237;28;20190;-63
2022/08/06 12:24:27;;;;;;;3.03;0.50;;;;;;;35.87;29.40;94863.22;5071252;28;20186;-64
2022/08/06 12:27:17;;;;;;;0.30;0.30;;;;;;;36.40;29.01;94859.50;5071020;28;20198;-63
2022/08/06 12:29:57;;;;;;;0.43;0.40;;;;;;;35.23;27.87;94847.84;5075243;28;20194;-64